sensor_id;sensor_type;location;lat;lon;timestamp;P1;durP1;ratioP1;P2;durP2;ratioP2
43552;SDS011;29153;42.696;23.218;2022-09-09T08:38:47;12.20;;;7.37;;
43552;SDS011;29153;42.696;23.218;2022-09-09T08:41:24;14.38;;;7.42;;
43552;SDS011;29153;42.696;23.218;2022-09-09T08:46:57;13.22;;;7.03;;
43552;SDS011;29153;42.696;23.218;2022-09-09T08:52:20;13.32;;;7.62;;
43552;SDS011;29153;42.696;23.218;2022-09-09T08:54:49;12.03;;;6.95;;
43552;SDS011;29153;42.696;23.218;2022-09-09T08:57:21;10.53;;;6.92;;
43552;SDS011;29153;42.696;23.218;2022-09-09T08:59:53;13.35;;;7.33;;
43552;SDS011;29153;42.696;23.218;2022-09-09T09:02:28;13.05;;;6.67;;
43552;SDS011;29153;42.696;23.218;2022-09-09T09:07:58;10.80;;;8.03;;
43552;SDS011;29153;42.696;23.218;2022-09-09T09:11:01;14.07;;;6.62;;
43552;SDS011;29153;42.696;23.218;2022-09-09T09:13:15;13.55;;;6.58;;
43552;SDS011;29153;42.696;23.218;2022-09-09T09:15:48;13.25;;;7.28;;
43552;SDS011;29153;42.696;23.218;2022-09-09T09:18:17;11.35;;;6.72;;
43552;SDS011;29153;42.696;23.218;2022-09-09T09:20:50;12.03;;;6.40;;
43552;SDS011;29153;42.696;23.218;2022-09-09T09:23:22;14.00;;;6.20;;
43552;SDS011;29153;42.696;23.218;2022-09-09T09:25:55;8.05;;;6.20;;
43552;SDS011;29153;42.696;23.218;2022-09-09T09:28:24;10.98;;;6.37;;
43552;SDS011;29153;42.696;23.218;2022-09-09T09:30:59;9.65;;;6.50;;
43552;SDS011;29153;42.696;23.218;2022-09-09T09:36:16;15.00;;;6.65;;
43552;SDS011;29153;42.696;23.218;2022-09-09T09:38:57;13.85;;;6.42;;
43552;SDS011;29153;42.696;23.218;2022-09-09T09:41:39;11.25;;;6.50;;
43552;SDS011;29153;42.696;23.218;2022-09-09T09:47:11;11.12;;;6.85;;
43552;SDS011;29153;42.696;23.218;2022-09-09T09:49:53;11.30;;;7.67;;
43552;SDS011;29153;42.696;23.218;2022-09-09T09:52:24;13.55;;;7.70;;
43552;SDS011;29153;42.696;23.218;2022-09-09T09:54:58;11.03;;;6.62;;
43552;SDS011;29153;42.696;23.218;2022-09-09T09:57:31;11.10;;;7.10;;
43552;SDS011;29153;42.696;23.218;2022-09-09T10:00:16;11.70;;;6.92;;
43552;SDS011;29153;42.696;23.218;2022-09-09T10:02:46;9.30;;;6.42;;
43552;SDS011;29153;42.696;23.218;2022-09-09T10:05:15;11.55;;;6.83;;
43552;SDS011;29153;42.696;23.218;2022-09-09T10:16:40;11.30;;;7.03;;
43552;SDS011;29153;42.696;23.218;2022-09-09T10:19:29;17.40;;;7.53;;
43552;SDS011;29153;42.696;23.218;2022-09-09T10:30:39;10.80;;;7.03;;
43552;SDS011;29153;42.696;23.218;2022-09-09T10:33:16;11.80;;;6.90;;
43552;SDS011;29153;42.696;23.218;2022-09-09T10:38:39;14.30;;;7.78;;
43552;SDS011;29153;42.696;23.218;2022-09-09T10:41:18;14.68;;;6.92;;
43552;SDS011;29153;42.696;23.218;2022-09-09T10:43:59;12.63;;;7.05;;
43552;SDS011;29153;42.696;23.218;2022-09-09T10:52:23;13.80;;;7.60;;
43552;SDS011;29153;42.696;23.218;2022-09-09T10:55:23;14.50;;;7.60;;
43552;SDS011;29153;42.696;23.218;2022-09-09T10:57:56;13.08;;;7.92;;
43552;SDS011;29153;42.696;23.218;2022-09-09T11:00:31;13.18;;;7.15;;
43552;SDS011;29153;42.696;23.218;2022-09-09T11:03:04;13.85;;;7.17;;
43552;SDS011;29153;42.696;23.218;2022-09-09T11:05:44;11.50;;;6.50;;
43552;SDS011;29153;42.696;23.218;2022-09-09T11:11:00;13.00;;;6.90;;
43552;SDS011;29153;42.696;23.218;2022-09-09T11:16:24;12.25;;;6.40;;
43552;SDS011;29153;42.696;23.218;2022-09-09T11:19:44;11.53;;;6.15;;
43552;SDS011;29153;42.696;23.218;2022-09-09T11:21:33;9.85;;;6.40;;
43552;SDS011;29153;42.696;23.218;2022-09-09T11:24:05;9.25;;;6.30;;
43552;SDS011;29153;42.696;23.218;2022-09-09T11:26:37;14.35;;;6.55;;
43552;SDS011;29153;42.696;23.218;2022-09-09T11:34:39;13.75;;;7.17;;
43552;SDS011;29153;42.696;23.218;2022-09-09T11:40:28;12.95;;;7.33;;
43552;SDS011;29153;42.696;23.218;2022-09-09T11:43:09;10.20;;;6.85;;
43552;SDS011;29153;42.696;23.218;2022-09-09T11:45:38;9.85;;;6.70;;
43552;SDS011;29153;42.696;23.218;2022-09-09T11:48:25;11.68;;;6.90;;
43552;SDS011;29153;42.696;23.218;2022-09-09T11:51:07;13.45;;;7.45;;
43552;SDS011;29153;42.696;23.218;2022-09-09T11:53:56;12.43;;;7.55;;
43552;SDS011;29153;42.696;23.218;2022-09-09T11:56:34;12.50;;;6.83;;
43552;SDS011;29153;42.696;23.218;2022-09-09T11:59:25;10.60;;;6.97;;
43552;SDS011;29153;42.696;23.218;2022-09-09T12:04:28;9.40;;;6.50;;
43552;SDS011;29153;42.696;23.218;2022-09-09T12:12:45;15.55;;;7.20;;
43552;SDS011;29153;42.696;23.218;2022-09-09T12:15:19;11.70;;;7.87;;
43552;SDS011;29153;42.696;23.218;2022-09-09T12:17:55;15.85;;;7.33;;
43552;SDS011;29153;42.696;23.218;2022-09-09T12:23:30;13.00;;;7.42;;
43552;SDS011;29153;42.696;23.218;2022-09-09T12:29:02;11.22;;;6.22;;
43552;SDS011;29153;42.696;23.218;2022-09-09T12:31:32;10.35;;;6.25;;
43552;SDS011;29153;42.696;23.218;2022-09-09T12:34:11;10.82;;;6.10;;
43552;SDS011;29153;42.696;23.218;2022-09-09T12:36:48;10.85;;;6.62;;
43552;SDS011;29153;42.696;23.218;2022-09-09T12:39:21;14.15;;;6.75;;
43552;SDS011;29153;42.696;23.218;2022-09-09T12:41:57;13.38;;;5.67;;
43552;SDS011;29153;42.696;23.218;2022-09-09T12:44:29;9.08;;;5.40;;
43552;SDS011;29153;42.696;23.218;2022-09-09T12:47:00;8.90;;;5.40;;
43552;SDS011;29153;42.696;23.218;2022-09-09T12:49:37;8.43;;;5.65;;
43552;SDS011;29153;42.696;23.218;2022-09-09T12:52:13;9.40;;;5.60;;
43552;SDS011;29153;42.696;23.218;2022-09-09T12:54:43;10.32;;;5.92;;
43552;SDS011;29153;42.696;23.218;2022-09-09T12:57:14;11.63;;;4.62;;
43552;SDS011;29153;42.696;23.218;2022-09-09T12:59:45;10.25;;;4.72;;
43552;SDS011;29153;42.696;23.218;2022-09-09T13:02:19;9.18;;;5.22;;
43552;SDS011;29153;42.696;23.218;2022-09-09T13:04:54;8.13;;;4.80;;
43552;SDS011;29153;42.696;23.218;2022-09-09T13:07:27;10.82;;;5.10;;
43552;SDS011;29153;42.696;23.218;2022-09-09T13:09:54;14.45;;;5.03;;
43552;SDS011;29153;42.696;23.218;2022-09-09T13:12:23;9.08;;;5.08;;
43552;SDS011;29153;42.696;23.218;2022-09-09T13:14:55;10.90;;;6.00;;
43552;SDS011;29153;42.696;23.218;2022-09-09T13:17:24;10.38;;;5.40;;
43552;SDS011;29153;42.696;23.218;2022-09-09T13:19:56;13.75;;;5.97;;
43552;SDS011;29153;42.696;23.218;2022-09-09T13:22:37;11.35;;;5.60;;
43552;SDS011;29153;42.696;23.218;2022-09-09T13:27:51;9.80;;;5.08;;
43552;SDS011;29153;42.696;23.218;2022-09-09T13:35:47;8.58;;;5.00;;
43552;SDS011;29153;42.696;23.218;2022-09-09T13:38:23;8.33;;;5.30;;
43552;SDS011;29153;42.696;23.218;2022-09-09T13:40:54;11.20;;;5.85;;
43552;SDS011;29153;42.696;23.218;2022-09-09T13:43:25;11.43;;;5.75;;
43552;SDS011;29153;42.696;23.218;2022-09-09T13:46:00;10.95;;;5.65;;
43552;SDS011;29153;42.696;23.218;2022-09-09T13:48:26;8.35;;;5.28;;
43552;SDS011;29153;42.696;23.218;2022-09-09T13:50:57;8.80;;;4.85;;
43552;SDS011;29153;42.696;23.218;2022-09-09T13:53:26;10.30;;;5.05;;
43552;SDS011;29153;42.696;23.218;2022-09-09T13:55:54;10.48;;;4.83;;
43552;SDS011;29153;42.696;23.218;2022-09-09T13:58:22;10.15;;;5.05;;
43552;SDS011;29153;42.696;23.218;2022-09-09T14:00:51;10.65;;;4.60;;
43552;SDS011;29153;42.696;23.218;2022-09-09T14:03:19;9.20;;;4.92;;
43552;SDS011;29153;42.696;23.218;2022-09-09T14:05:47;8.88;;;4.85;;
43552;SDS011;29153;42.696;23.218;2022-09-09T14:08:20;9.33;;;4.53;;
43552;SDS011;29153;42.696;23.218;2022-09-09T14:10:48;12.33;;;4.87;;
43552;SDS011;29153;42.696;23.218;2022-09-09T14:13:16;11.60;;;4.92;;
43552;SDS011;29153;42.696;23.218;2022-09-09T14:18:11;9.13;;;4.80;;
43552;SDS011;29153;42.696;23.218;2022-09-09T14:20:39;13.43;;;4.92;;
43552;SDS011;29153;42.696;23.218;2022-09-09T14:23:09;8.40;;;5.15;;
43552;SDS011;29153;42.696;23.218;2022-09-09T14:25:39;7.62;;;4.72;;
43552;SDS011;29153;42.696;23.218;2022-09-09T14:28:13;8.13;;;4.85;;
43552;SDS011;29153;42.696;23.218;2022-09-09T14:30:38;10.63;;;4.85;;
43552;SDS011;29153;42.696;23.218;2022-09-09T14:33:07;9.65;;;4.37;;
43552;SDS011;29153;42.696;23.218;2022-09-09T14:35:36;12.75;;;4.75;;
43552;SDS011;29153;42.696;23.218;2022-09-09T14:38:06;11.53;;;4.53;;
43552;SDS011;29153;42.696;23.218;2022-09-09T14:40:35;8.98;;;3.85;;
43552;SDS011;29153;42.696;23.218;2022-09-09T14:43:04;11.55;;;4.17;;
43552;SDS011;29153;42.696;23.218;2022-09-09T14:45:31;8.18;;;4.30;;
43552;SDS011;29153;42.696;23.218;2022-09-09T14:55:20;14.25;;;4.70;;
43552;SDS011;29153;42.696;23.218;2022-09-09T14:57:47;13.70;;;4.80;;
43552;SDS011;29153;42.696;23.218;2022-09-09T15:00:15;8.03;;;3.62;;
43552;SDS011;29153;42.696;23.218;2022-09-09T15:02:43;12.25;;;4.40;;
43552;SDS011;29153;42.696;23.218;2022-09-09T15:05:10;10.08;;;4.60;;
43552;SDS011;29153;42.696;23.218;2022-09-09T15:07:38;12.33;;;4.33;;
43552;SDS011;29153;42.696;23.218;2022-09-09T15:10:05;8.85;;;4.97;;
43552;SDS011;29153;42.696;23.218;2022-09-09T15:15:00;12.18;;;5.15;;
43552;SDS011;29153;42.696;23.218;2022-09-09T15:17:28;10.05;;;5.00;;
43552;SDS011;29153;42.696;23.218;2022-09-09T15:19:56;13.38;;;4.92;;
43552;SDS011;29153;42.696;23.218;2022-09-09T15:22:23;13.15;;;5.25;;
43552;SDS011;29153;42.696;23.218;2022-09-09T15:27:18;11.35;;;5.03;;
43552;SDS011;29153;42.696;23.218;2022-09-09T15:29:45;8.98;;;4.83;;
43552;SDS011;29153;42.696;23.218;2022-09-09T15:32:13;12.50;;;5.15;;
43552;SDS011;29153;42.696;23.218;2022-09-09T15:34:40;12.73;;;5.15;;
43552;SDS011;29153;42.696;23.218;2022-09-09T15:37:14;8.95;;;5.12;;
43552;SDS011;29153;42.696;23.218;2022-09-09T15:39:39;10.03;;;5.45;;
43552;SDS011;29153;42.696;23.218;2022-09-09T15:44:45;11.57;;;6.12;;
43552;SDS011;29153;42.696;23.218;2022-09-09T15:47:12;12.73;;;5.85;;
43552;SDS011;29153;42.696;23.218;2022-09-09T15:49:40;14.40;;;6.83;;
43552;SDS011;29153;42.696;23.218;2022-09-09T15:54:36;11.78;;;5.95;;
43552;SDS011;29153;42.696;23.218;2022-09-09T15:57:05;9.48;;;6.95;;
43552;SDS011;29153;42.696;23.218;2022-09-09T15:59:34;15.35;;;8.10;;
43552;SDS011;29153;42.696;23.218;2022-09-09T16:02:01;51.65;;;20.37;;
43552;SDS011;29153;42.696;23.218;2022-09-09T16:04:29;47.90;;;20.88;;
43552;SDS011;29153;42.696;23.218;2022-09-09T16:07:02;24.23;;;11.85;;
43552;SDS011;29153;42.696;23.218;2022-09-09T16:09:31;32.90;;;13.00;;
43552;SDS011;29153;42.696;23.218;2022-09-09T16:11:59;27.62;;;12.95;;
43552;SDS011;29153;42.696;23.218;2022-09-09T16:14:30;18.80;;;8.63;;
43552;SDS011;29153;42.696;23.218;2022-09-09T16:16:59;23.12;;;11.78;;
43552;SDS011;29153;42.696;23.218;2022-09-09T16:21:54;28.32;;;15.10;;
43552;SDS011;29153;42.696;23.218;2022-09-09T16:24:22;37.83;;;17.57;;
43552;SDS011;29153;42.696;23.218;2022-09-09T16:26:50;37.30;;;15.50;;
43552;SDS011;29153;42.696;23.218;2022-09-09T16:29:20;50.90;;;22.95;;
43552;SDS011;29153;42.696;23.218;2022-09-09T16:31:49;110.97;;;47.43;;
43552;SDS011;29153;42.696;23.218;2022-09-09T16:34:17;123.20;;;55.78;;
43552;SDS011;29153;42.696;23.218;2022-09-09T16:39:14;58.05;;;28.83;;
43552;SDS011;29153;42.696;23.218;2022-09-09T16:41:43;170.55;;;85.62;;
43552;SDS011;29153;42.696;23.218;2022-09-09T16:44:13;159.20;;;82.92;;
43552;SDS011;29153;42.696;23.218;2022-09-09T16:46:44;107.60;;;55.38;;
43552;SDS011;29153;42.696;23.218;2022-09-09T16:49:14;101.78;;;51.68;;
43552;SDS011;29153;42.696;23.218;2022-09-09T16:51:45;28.52;;;15.95;;
43552;SDS011;29153;42.696;23.218;2022-09-09T16:54:19;30.60;;;17.65;;
43552;SDS011;29153;42.696;23.218;2022-09-09T16:56:48;21.70;;;13.13;;
43552;SDS011;29153;42.696;23.218;2022-09-09T16:59:17;20.40;;;11.78;;
43552;SDS011;29153;42.696;23.218;2022-09-09T17:01:47;20.62;;;12.63;;
43552;SDS011;29153;42.696;23.218;2022-09-09T17:04:17;18.32;;;10.80;;
43552;SDS011;29153;42.696;23.218;2022-09-09T17:06:50;15.23;;;10.18;;
43552;SDS011;29153;42.696;23.218;2022-09-09T17:09:19;19.42;;;10.95;;
43552;SDS011;29153;42.696;23.218;2022-09-09T17:11:48;19.75;;;12.53;;
43552;SDS011;29153;42.696;23.218;2022-09-09T17:14:17;17.42;;;11.22;;
43552;SDS011;29153;42.696;23.218;2022-09-09T17:16:46;18.80;;;10.65;;
43552;SDS011;29153;42.696;23.218;2022-09-09T17:24:10;30.15;;;17.80;;
43552;SDS011;29153;42.696;23.218;2022-09-09T17:26:38;36.42;;;18.98;;
43552;SDS011;29153;42.696;23.218;2022-09-09T17:29:06;32.42;;;18.65;;
43552;SDS011;29153;42.696;23.218;2022-09-09T17:31:34;29.90;;;18.48;;
43552;SDS011;29153;42.696;23.218;2022-09-09T17:34:01;33.63;;;18.45;;
43552;SDS011;29153;42.696;23.218;2022-09-09T17:36:31;89.75;;;39.38;;
43552;SDS011;29153;42.696;23.218;2022-09-09T17:39:00;249.55;;;98.52;;
43552;SDS011;29153;42.696;23.218;2022-09-09T17:41:34;326.70;;;151.12;;
43552;SDS011;29153;42.696;23.218;2022-09-09T17:44:03;201.32;;;92.97;;
43552;SDS011;29153;42.696;23.218;2022-09-09T17:46:32;148.25;;;70.42;;
43552;SDS011;29153;42.696;23.218;2022-09-09T17:49:02;69.03;;;38.20;;
43552;SDS011;29153;42.696;23.218;2022-09-09T17:51:32;47.67;;;26.87;;
43552;SDS011;29153;42.696;23.218;2022-09-09T17:54:01;76.33;;;41.83;;
43552;SDS011;29153;42.696;23.218;2022-09-09T17:56:31;85.30;;;46.50;;
43552;SDS011;29153;42.696;23.218;2022-09-09T17:59:01;44.35;;;25.35;;
43552;SDS011;29153;42.696;23.218;2022-09-09T18:01:31;34.40;;;19.98;;
43552;SDS011;29153;42.696;23.218;2022-09-09T18:04:02;43.92;;;25.52;;
43552;SDS011;29153;42.696;23.218;2022-09-09T18:06:32;34.03;;;18.80;;
43552;SDS011;29153;42.696;23.218;2022-09-09T18:09:03;22.05;;;12.45;;
43552;SDS011;29153;42.696;23.218;2022-09-09T18:11:33;27.62;;;16.05;;
43552;SDS011;29153;42.696;23.218;2022-09-09T18:14:08;21.57;;;16.25;;
43552;SDS011;29153;42.696;23.218;2022-09-09T18:16:38;21.55;;;14.83;;
43552;SDS011;29153;42.696;23.218;2022-09-09T18:19:09;20.82;;;12.98;;
43552;SDS011;29153;42.696;23.218;2022-09-09T18:21:38;24.30;;;16.75;;
43552;SDS011;29153;42.696;23.218;2022-09-09T18:24:07;27.52;;;17.23;;
43552;SDS011;29153;42.696;23.218;2022-09-09T18:26:36;22.52;;;13.05;;
43552;SDS011;29153;42.696;23.218;2022-09-09T18:29:06;25.60;;;16.23;;
43552;SDS011;29153;42.696;23.218;2022-09-09T18:31:35;20.65;;;12.50;;
43552;SDS011;29153;42.696;23.218;2022-09-09T18:34:05;23.62;;;12.85;;
43552;SDS011;29153;42.696;23.218;2022-09-09T18:36:36;22.02;;;11.22;;
43552;SDS011;29153;42.696;23.218;2022-09-09T18:39:05;19.62;;;11.30;;
43552;SDS011;29153;42.696;23.218;2022-09-09T18:41:35;19.75;;;11.78;;
43552;SDS011;29153;42.696;23.218;2022-09-09T18:44:13;23.07;;;13.80;;
43552;SDS011;29153;42.696;23.218;2022-09-09T18:46:38;26.35;;;16.45;;
43552;SDS011;29153;42.696;23.218;2022-09-09T18:49:06;19.45;;;11.97;;
43552;SDS011;29153;42.696;23.218;2022-09-09T18:51:36;20.17;;;11.50;;
43552;SDS011;29153;42.696;23.218;2022-09-09T18:54:07;21.40;;;12.28;;
43552;SDS011;29153;42.696;23.218;2022-09-09T18:56:36;26.65;;;14.63;;
43552;SDS011;29153;42.696;23.218;2022-09-09T18:59:04;29.10;;;15.15;;
43552;SDS011;29153;42.696;23.218;2022-09-09T19:01:33;24.85;;;15.32;;
43552;SDS011;29153;42.696;23.218;2022-09-09T19:04:02;23.25;;;12.68;;
43552;SDS011;29153;42.696;23.218;2022-09-09T19:06:31;20.27;;;10.82;;
43552;SDS011;29153;42.696;23.218;2022-09-09T19:09:00;19.42;;;11.90;;
43552;SDS011;29153;42.696;23.218;2022-09-09T19:13:56;17.60;;;10.88;;
43552;SDS011;29153;42.696;23.218;2022-09-09T19:16:25;19.65;;;10.75;;
43552;SDS011;29153;42.696;23.218;2022-09-09T19:18:59;17.35;;;10.93;;
43552;SDS011;29153;42.696;23.218;2022-09-09T19:21:29;17.17;;;10.48;;
43552;SDS011;29153;42.696;23.218;2022-09-09T19:24:01;20.60;;;9.98;;
43552;SDS011;29153;42.696;23.218;2022-09-09T19:26:34;17.50;;;9.93;;
43552;SDS011;29153;42.696;23.218;2022-09-09T19:29:14;28.10;;;13.00;;
43552;SDS011;29153;42.696;23.218;2022-09-09T19:31:40;22.35;;;12.85;;
43552;SDS011;29153;42.696;23.218;2022-09-09T19:34:08;21.42;;;12.37;;
43552;SDS011;29153;42.696;23.218;2022-09-09T19:36:36;21.00;;;12.23;;
43552;SDS011;29153;42.696;23.218;2022-09-09T19:39:04;23.22;;;12.18;;
43552;SDS011;29153;42.696;23.218;2022-09-09T19:41:34;18.50;;;11.83;;
43552;SDS011;29153;42.696;23.218;2022-09-09T19:44:04;22.50;;;11.88;;
43552;SDS011;29153;42.696;23.218;2022-09-09T19:46:33;20.85;;;11.55;;
43552;SDS011;29153;42.696;23.218;2022-09-09T19:49:03;19.42;;;11.45;;
43552;SDS011;29153;42.696;23.218;2022-09-09T19:51:31;15.63;;;8.63;;
43552;SDS011;29153;42.696;23.218;2022-09-09T19:54:02;15.95;;;9.33;;
43552;SDS011;29153;42.696;23.218;2022-09-09T19:56:32;16.35;;;9.75;;
43552;SDS011;29153;42.696;23.218;2022-09-09T19:59:02;14.58;;;8.43;;
43552;SDS011;29153;42.696;23.218;2022-09-09T20:01:34;15.95;;;10.00;;
43552;SDS011;29153;42.696;23.218;2022-09-09T20:04:04;18.48;;;9.93;;
43552;SDS011;29153;42.696;23.218;2022-09-09T20:06:33;16.90;;;9.73;;
43552;SDS011;29153;42.696;23.218;2022-09-09T20:09:02;16.17;;;10.45;;
43552;SDS011;29153;42.696;23.218;2022-09-09T20:11:31;17.07;;;10.32;;
43552;SDS011;29153;42.696;23.218;2022-09-09T20:13:59;15.95;;;10.00;;
43552;SDS011;29153;42.696;23.218;2022-09-09T20:16:28;18.85;;;10.30;;
43552;SDS011;29153;42.696;23.218;2022-09-09T20:18:57;18.57;;;9.63;;
43552;SDS011;29153;42.696;23.218;2022-09-09T20:21:32;15.83;;;8.80;;
43552;SDS011;29153;42.696;23.218;2022-09-09T20:24:01;15.10;;;9.58;;
43552;SDS011;29153;42.696;23.218;2022-09-09T20:26:31;18.40;;;9.55;;
43552;SDS011;29153;42.696;23.218;2022-09-09T20:29:01;17.70;;;9.58;;
43552;SDS011;29153;42.696;23.218;2022-09-09T20:31:31;16.12;;;9.20;;
43552;SDS011;29153;42.696;23.218;2022-09-09T20:34:06;17.55;;;10.15;;
43552;SDS011;29153;42.696;23.218;2022-09-09T20:36:39;19.32;;;10.28;;
43552;SDS011;29153;42.696;23.218;2022-09-09T20:39:13;16.87;;;9.08;;
43552;SDS011;29153;42.696;23.218;2022-09-09T20:41:39;15.15;;;8.90;;
43552;SDS011;29153;42.696;23.218;2022-09-09T20:44:10;15.80;;;9.38;;
43552;SDS011;29153;42.696;23.218;2022-09-09T20:46:41;14.53;;;9.13;;
43552;SDS011;29153;42.696;23.218;2022-09-09T20:49:13;14.28;;;9.13;;
43552;SDS011;29153;42.696;23.218;2022-09-09T20:51:42;17.07;;;8.83;;
43552;SDS011;29153;42.696;23.218;2022-09-09T20:54:11;13.18;;;8.25;;
43552;SDS011;29153;42.696;23.218;2022-09-09T20:56:41;16.75;;;8.88;;
43552;SDS011;29153;42.696;23.218;2022-09-09T20:59:11;12.63;;;7.67;;
43552;SDS011;29153;42.696;23.218;2022-09-09T21:01:41;14.65;;;9.05;;
43552;SDS011;29153;42.696;23.218;2022-09-09T21:04:10;17.75;;;8.08;;
43552;SDS011;29153;42.696;23.218;2022-09-09T21:06:39;15.00;;;8.38;;
43552;SDS011;29153;42.696;23.218;2022-09-09T21:09:06;12.40;;;7.53;;
43552;SDS011;29153;42.696;23.218;2022-09-09T21:11:34;12.75;;;8.25;;
43552;SDS011;29153;42.696;23.218;2022-09-09T21:14:02;15.00;;;9.25;;
43552;SDS011;29153;42.696;23.218;2022-09-09T21:16:30;13.72;;;8.15;;
43552;SDS011;29153;42.696;23.218;2022-09-09T21:18:58;16.95;;;8.60;;
43552;SDS011;29153;42.696;23.218;2022-09-09T21:21:26;13.53;;;8.25;;
43552;SDS011;29153;42.696;23.218;2022-09-09T21:23:54;12.30;;;7.97;;
43552;SDS011;29153;42.696;23.218;2022-09-09T21:26:24;13.10;;;8.75;;
43552;SDS011;29153;42.696;23.218;2022-09-09T21:28:52;12.53;;;8.08;;
43552;SDS011;29153;42.696;23.218;2022-09-09T21:31:20;16.77;;;8.50;;
43552;SDS011;29153;42.696;23.218;2022-09-09T21:33:48;14.25;;;7.87;;
43552;SDS011;29153;42.696;23.218;2022-09-09T21:36:16;16.48;;;7.78;;
43552;SDS011;29153;42.696;23.218;2022-09-09T21:38:44;13.90;;;8.53;;
43552;SDS011;29153;42.696;23.218;2022-09-09T21:41:12;13.40;;;8.63;;
43552;SDS011;29153;42.696;23.218;2022-09-09T21:43:41;14.33;;;8.33;;
43552;SDS011;29153;42.696;23.218;2022-09-09T21:46:12;13.45;;;8.55;;
43552;SDS011;29153;42.696;23.218;2022-09-09T21:48:41;12.45;;;8.53;;
43552;SDS011;29153;42.696;23.218;2022-09-09T21:51:09;15.95;;;8.63;;
43552;SDS011;29153;42.696;23.218;2022-09-09T21:53:39;15.38;;;8.58;;
43552;SDS011;29153;42.696;23.218;2022-09-09T21:56:14;13.68;;;8.53;;
43552;SDS011;29153;42.696;23.218;2022-09-09T21:58:44;15.70;;;9.15;;
43552;SDS011;29153;42.696;23.218;2022-09-09T22:01:13;13.58;;;8.23;;
43552;SDS011;29153;42.696;23.218;2022-09-09T22:03:42;14.25;;;8.73;;
43552;SDS011;29153;42.696;23.218;2022-09-09T22:06:11;13.55;;;8.65;;
43552;SDS011;29153;42.696;23.218;2022-09-09T22:08:40;17.23;;;9.33;;
43552;SDS011;29153;42.696;23.218;2022-09-09T22:11:09;16.17;;;8.80;;
43552;SDS011;29153;42.696;23.218;2022-09-09T22:13:39;17.37;;;8.88;;
43552;SDS011;29153;42.696;23.218;2022-09-09T22:16:08;11.50;;;7.75;;
43552;SDS011;29153;42.696;23.218;2022-09-09T22:18:38;15.00;;;8.35;;
43552;SDS011;29153;42.696;23.218;2022-09-09T22:21:13;15.83;;;8.75;;
43552;SDS011;29153;42.696;23.218;2022-09-09T22:23:37;12.65;;;8.48;;
43552;SDS011;29153;42.696;23.218;2022-09-09T22:26:04;14.23;;;9.28;;
43552;SDS011;29153;42.696;23.218;2022-09-09T22:28:33;18.12;;;9.50;;
43552;SDS011;29153;42.696;23.218;2022-09-09T22:31:02;27.30;;;13.08;;
43552;SDS011;29153;42.696;23.218;2022-09-09T22:33:30;24.60;;;12.65;;
43552;SDS011;29153;42.696;23.218;2022-09-09T22:35:58;22.67;;;11.88;;
43552;SDS011;29153;42.696;23.218;2022-09-09T22:38:25;28.55;;;14.23;;
43552;SDS011;29153;42.696;23.218;2022-09-09T22:40:54;24.67;;;14.13;;
43552;SDS011;29153;42.696;23.218;2022-09-09T22:43:21;18.32;;;11.05;;
43552;SDS011;29153;42.696;23.218;2022-09-09T22:45:49;20.43;;;10.30;;
43552;SDS011;29153;42.696;23.218;2022-09-09T22:48:17;17.07;;;9.28;;
43552;SDS011;29153;42.696;23.218;2022-09-09T22:50:45;13.25;;;9.05;;
43552;SDS011;29153;42.696;23.218;2022-09-09T22:53:13;15.55;;;9.50;;
43552;SDS011;29153;42.696;23.218;2022-09-09T22:55:41;16.55;;;9.63;;
43552;SDS011;29153;42.696;23.218;2022-09-09T22:58:11;14.47;;;9.18;;
43552;SDS011;29153;42.696;23.218;2022-09-09T23:00:38;16.55;;;9.28;;
43552;SDS011;29153;42.696;23.218;2022-09-09T23:03:06;15.78;;;8.45;;
43552;SDS011;29153;42.696;23.218;2022-09-09T23:05:33;18.52;;;9.15;;
43552;SDS011;29153;42.696;23.218;2022-09-09T23:08:03;14.85;;;9.08;;
43552;SDS011;29153;42.696;23.218;2022-09-09T23:10:30;17.52;;;9.28;;
43552;SDS011;29153;42.696;23.218;2022-09-09T23:12:58;13.98;;;8.70;;
43552;SDS011;29153;42.696;23.218;2022-09-09T23:17:55;12.73;;;8.73;;
43552;SDS011;29153;42.696;23.218;2022-09-09T23:20:23;14.80;;;9.25;;
43552;SDS011;29153;42.696;23.218;2022-09-09T23:22:51;13.98;;;8.68;;
43552;SDS011;29153;42.696;23.218;2022-09-09T23:25:19;11.95;;;8.50;;
43552;SDS011;29153;42.696;23.218;2022-09-09T23:27:47;14.05;;;8.48;;
43552;SDS011;29153;42.696;23.218;2022-09-09T23:30:15;14.35;;;8.90;;
43552;SDS011;29153;42.696;23.218;2022-09-09T23:32:42;13.93;;;9.03;;
43552;SDS011;29153;42.696;23.218;2022-09-09T23:35:11;15.45;;;8.98;;
43552;SDS011;29153;42.696;23.218;2022-09-09T23:37:38;14.85;;;9.40;;
43552;SDS011;29153;42.696;23.218;2022-09-09T23:40:06;18.40;;;9.85;;
43552;SDS011;29153;42.696;23.218;2022-09-09T23:45:01;13.10;;;8.85;;
43552;SDS011;29153;42.696;23.218;2022-09-09T23:47:29;16.75;;;9.58;;
43552;SDS011;29153;42.696;23.218;2022-09-09T23:49:56;13.35;;;9.20;;
43552;SDS011;29153;42.696;23.218;2022-09-09T23:52:24;14.25;;;8.83;;
43552;SDS011;29153;42.696;23.218;2022-09-09T23:54:51;12.10;;;8.40;;
43552;SDS011;29153;42.696;23.218;2022-09-09T23:57:20;14.58;;;8.43;;
